TimeCDT,TemperatureF,Dew PointF,Humidity,Sea Level PressureIn,VisibilityMPH,Wind Direction,Wind SpeedMPH,Gust SpeedMPH,PrecipitationIn,Events,Conditions,WindDirDegrees,DateUTC
12:53 AM,52.0,45.0,77,30.09,10.0,NE,3.5,-,N/A,,Clear,50,2013-10-24 05:53:00
1:53 AM,51.1,46.0,83,30.09,10.0,NE,5.8,-,N/A,,Clear,50,2013-10-24 06:53:00
2:53 AM,48.9,46.0,90,30.09,10.0,ENE,5.8,-,N/A,,Clear,70,2013-10-24 07:53:00
3:53 AM,48.9,45.0,86,30.09,10.0,NE,3.5,-,N/A,,Clear,40,2013-10-24 08:53:00
4:53 AM,50.0,45.0,83,30.11,10.0,Calm,Calm,-,N/A,,Clear,0,2013-10-24 09:53:00
5:53 AM,46.9,45.0,93,30.14,10.0,Calm,Calm,-,N/A,,Clear,0,2013-10-24 10:53:00
6:53 AM,45.0,44.1,97,30.16,6.0,Calm,Calm,-,N/A,,Clear,0,2013-10-24 11:53:00
7:53 AM,46.9,44.1,90,30.19,10.0,Calm,Calm,-,N/A,,Clear,0,2013-10-24 12:53:00
8:53 AM,55.0,46.0,72,30.23,10.0,North,9.2,-,N/A,,Clear,10,2013-10-24 13:53:00
9:53 AM,59.0,43.0,55,30.25,10.0,NNE,13.8,-,N/A,,Clear,30,2013-10-24 14:53:00
10:53 AM,62.1,39.9,44,30.27,10.0,North,15.0,-,N/A,,Clear,10,2013-10-24 15:53:00
11:53 AM,63.0,39.9,43,30.29,10.0,North,8.1,-,N/A,,Clear,10,2013-10-24 16:53:00
12:53 PM,63.0,39.9,43,30.28,10.0,Variable,3.5,-,N/A,,Clear,0,2013-10-24 17:53:00
1:53 PM,64.0,39.0,40,30.27,10.0,NNW,8.1,-,N/A,,Clear,340,2013-10-24 18:53:00
2:53 PM,66.0,34.0,30,30.26,10.0,NNW,10.4,-,N/A,,Clear,330,2013-10-24 19:53:00
3:53 PM,64.9,36.0,34,30.27,10.0,North,11.5,-,N/A,,Clear,350,2013-10-24 20:53:00
4:53 PM,63.0,35.1,35,30.27,10.0,North,12.7,-,N/A,,Clear,350,2013-10-24 21:53:00
5:53 PM,60.1,34.0,38,30.28,10.0,NNW,8.1,-,N/A,,Clear,340,2013-10-24 22:53:00
6:53 PM,57.0,34.0,42,30.30,10.0,North,9.2,-,N/A,,Clear,350,2013-10-24 23:53:00
7:53 PM,53.1,35.1,50,30.32,10.0,North,8.1,-,N/A,,Clear,10,2013-10-25 00:53:00
8:53 PM,52.0,35.1,53,30.35,10.0,NNE,5.8,-,N/A,,Clear,30,2013-10-25 01:53:00
9:53 PM,50.0,34.0,54,30.37,10.0,NNE,6.9,-,N/A,,Clear,30,2013-10-25 02:53:00
10:53 PM,48.0,36.0,63,30.39,10.0,East,3.5,-,N/A,,Clear,90,2013-10-25 03:53:00
11:53 PM,46.9,36.0,66,30.40,10.0,Calm,Calm,-,N/A,,Clear,0,2013-10-25 04:53:00